Time;durP1;ratioP1;P1;durP2;ratioP2;P2;SDS_P1;SDS_P2;PMS_P1;PMS_P2;Temp;Humidity;BMP_temperature;BMP_pressure;BME280_temperature;BME280_humidity;BME280_pressure;Samples;Min_cycle;Max_cycle;Signal;HPM_P1;HPM_P2
2022/08/25 00:01:01;;;;;;;9.15;5.75;;;20.80;99.90;;;;;;4897590;29;20041;-67
2022/08/25 00:03:26;;;;;;;7.53;5.78;;;20.80;99.90;;;;;;4897844;29;20572;-66
2022/08/25 00:05:52;;;;;;;9.15;6.18;;;20.80;99.90;;;;;;4878435;29;20107;-66
2022/08/25 00:08:17;;;;;;;6.28;5.72;;;20.70;99.90;;;;;;4896518;29;20048;-66
2022/08/25 00:10:43;;;;;;;7.80;5.68;;;20.70;99.90;;;;;;4881472;29;20056;-67
2022/08/25 00:13:09;;;;;;;7.13;5.30;;;20.60;99.90;;;;;;4879810;29;20064;-66
2022/08/25 00:15:34;;;;;;;5.57;5.13;;;20.70;99.90;;;;;;4896588;29;20052;-66
2022/08/25 00:18:00;;;;;;;9.02;5.30;;;20.60;99.90;;;;;;4897620;29;20393;-67
2022/08/25 00:20:27;;;;;;;7.75;5.55;;;20.60;99.90;;;;;;4898290;29;20509;-66
2022/08/25 00:22:55;;;;;;;6.20;5.60;;;20.50;99.90;;;;;;4896601;29;20075;-66
2022/08/25 00:25:22;;;;;;;6.07;5.47;;;20.50;99.90;;;;;;4878945;29;20047;-67
2022/08/25 00:27:49;;;;;;;6.70;6.00;;;20.50;99.90;;;;;;4897446;29;20062;-67
2022/08/25 00:30:16;;;;;;;9.30;5.13;;;20.40;99.90;;;;;;4879225;29;20123;-66
2022/08/25 00:32:42;;;;;;;6.60;5.40;;;20.30;99.90;;;;;;4880406;29;20087;-67
2022/08/25 00:35:07;;;;;;;6.05;5.10;;;20.40;99.90;;;;;;4877966;29;20052;-66
2022/08/25 00:37:35;;;;;;;5.45;4.90;;;20.40;99.90;;;;;;4892940;29;20080;-66
2022/08/25 00:40:00;;;;;;;5.53;4.72;;;20.30;99.90;;;;;;4895064;29;20081;-66
2022/08/25 00:42:26;;;;;;;7.50;5.50;;;20.30;99.90;;;;;;4895771;29;20060;-66
2022/08/25 00:44:52;;;;;;;7.82;5.30;;;20.30;99.90;;;;;;4896529;29;20049;-66
2022/08/25 00:47:18;;;;;;;6.43;5.05;;;20.30;99.90;;;;;;4879861;29;20135;-66
2022/08/25 00:49:48;;;;;;;5.60;5.00;;;20.30;99.90;;;;;;4877300;29;20151;-66
2022/08/25 00:52:19;;;;;;;5.28;4.78;;;20.20;99.90;;;;;;4880665;29;20075;-66
2022/08/25 00:54:55;;;;;;;5.57;4.90;;;20.20;99.90;;;;;;4892646;29;20505;-66
2022/08/25 00:57:33;;;;;;;6.28;4.40;;;20.20;99.90;;;;;;4896788;29;20049;-66
2022/08/25 00:59:59;;;;;;;7.60;4.85;;;20.20;99.90;;;;;;4877629;29;20502;-66
2022/08/25 01:02:25;;;;;;;5.28;4.78;;;20.10;99.90;;;;;;4884880;29;20080;-66
2022/08/25 01:04:51;;;;;;;5.80;4.60;;;20.10;99.90;;;;;;4879100;29;20470;-66
2022/08/25 01:07:19;;;;;;;5.38;4.38;;;20.10;99.90;;;;;;4879069;29;20059;-66
2022/08/25 01:09:46;;;;;;;5.40;4.35;;;20.10;99.90;;;;;;4895934;29;20060;-66
2022/08/25 01:12:12;;;;;;;5.00;4.43;;;20.00;99.90;;;;;;4879393;29;20060;-66
2022/08/25 01:14:38;;;;;;;5.57;4.60;;;20.00;99.90;;;;;;4896509;29;20061;-66
2022/08/25 01:17:04;;;;;;;6.03;4.38;;;20.00;99.90;;;;;;4896683;29;20477;-66
2022/08/25 01:19:32;;;;;;;6.30;4.68;;;20.00;99.90;;;;;;4863823;29;20402;-66
2022/08/25 01:21:58;;;;;;;8.27;4.50;;;20.00;99.90;;;;;;4895383;29;20103;-66
2022/08/25 01:24:46;;;;;;;5.22;4.32;;;20.00;99.90;;;;;;4896578;29;20059;-66
2022/08/25 01:27:12;;;;;;;5.97;4.20;;;19.90;99.90;;;;;;4878810;29;20159;-66
2022/08/25 01:29:38;;;;;;;4.50;4.10;;;19.90;99.90;;;;;;4897164;29;20071;-66
2022/08/25 01:32:12;;;;;;;5.47;3.97;;;19.90;99.90;;;;;;4896428;29;20400;-66
2022/08/25 01:34:42;;;;;;;5.50;4.03;;;19.90;99.90;;;;;;4896420;29;20497;-66
2022/08/25 01:37:10;;;;;;;6.40;4.20;;;19.90;99.90;;;;;;4895972;29;20052;-66
2022/08/25 01:39:35;;;;;;;5.03;4.35;;;19.90;99.90;;;;;;4879406;29;20053;-66
2022/08/25 01:42:19;;;;;;;4.53;3.97;;;19.80;99.90;;;;;;4879575;29;20075;-66
2022/08/25 01:44:46;;;;;;;5.60;3.92;;;19.80;99.90;;;;;;4885931;29;20183;-66
2022/08/25 01:47:12;;;;;;;5.13;4.05;;;19.80;99.90;;;;;;4894664;29;20128;-66
2022/08/25 01:49:38;;;;;;;4.10;3.72;;;19.70;99.90;;;;;;4896858;29;20048;-66
2022/08/25 01:52:24;;;;;;;5.32;3.60;;;19.70;99.90;;;;;;4866335;29;20569;-66
2022/08/25 01:54:49;;;;;;;6.13;4.22;;;19.70;99.90;;;;;;4896717;29;20474;-66
2022/08/25 01:57:16;;;;;;;6.18;3.90;;;19.70;99.90;;;;;;4896186;29;20086;-66
2022/08/25 01:59:41;;;;;;;4.32;3.83;;;19.70;99.90;;;;;;4896961;29;20048;-66
2022/08/25 02:02:07;;;;;;;5.03;4.00;;;19.70;99.90;;;;;;4879639;29;20432;-66
2022/08/25 02:04:33;;;;;;;5.43;3.92;;;19.70;99.90;;;;;;4882921;29;20124;-66
2022/08/25 02:07:00;;;;;;;7.20;4.05;;;19.70;99.90;;;;;;4880909;29;20406;-66
2022/08/25 02:09:25;;;;;;;3.95;3.55;;;19.60;99.90;;;;;;4897674;29;20061;-66
2022/08/25 02:11:51;;;;;;;5.00;3.67;;;19.70;99.90;;;;;;4899703;29;20520;-66
2022/08/25 02:14:18;;;;;;;5.50;3.78;;;19.60;99.90;;;;;;4881371;29;20493;-66
2022/08/25 02:16:48;;;;;;;5.03;3.42;;;19.50;99.90;;;;;;4899636;29;20111;-66
2022/08/25 02:19:14;;;;;;;7.13;3.97;;;19.50;99.90;;;;;;4882147;29;20564;-66
2022/08/25 02:21:41;;;;;;;7.07;3.70;;;19.60;99.90;;;;;;4897218;29;20063;-66
2022/08/25 02:24:08;;;;;;;4.57;3.47;;;19.60;99.90;;;;;;4899450;29;20101;-66
2022/08/25 02:26:35;;;;;;;5.40;3.70;;;19.50;99.90;;;;;;4899472;29;20128;-66
2022/08/25 02:29:01;;;;;;;5.50;3.70;;;19.50;99.90;;;;;;4887006;29;20097;-66
2022/08/25 02:31:26;;;;;;;4.18;3.60;;;19.50;99.90;;;;;;4878630;29;20049;-67
2022/08/25 02:33:53;;;;;;;6.10;3.80;;;19.50;99.90;;;;;;4899998;29;20140;-67
2022/08/25 02:36:20;;;;;;;4.70;4.15;;;19.50;99.90;;;;;;4899428;29;20375;-67
2022/08/25 02:38:45;;;;;;;6.22;3.88;;;19.50;99.90;;;;;;4897950;29;20049;-67
2022/08/25 02:41:14;;;;;;;4.68;4.03;;;19.40;99.90;;;;;;4898029;29;20055;-66
2022/08/25 02:43:42;;;;;;;5.40;3.40;;;19.50;99.90;;;;;;4881819;29;20056;-66
2022/08/25 02:46:09;;;;;;;5.15;3.45;;;19.40;99.90;;;;;;4898999;29;20084;-66
2022/08/25 02:48:35;;;;;;;4.90;3.80;;;19.40;99.90;;;;;;4899234;29;20055;-66
2022/08/25 02:51:01;;;;;;;6.65;3.38;;;19.40;99.90;;;;;;4880157;29;20131;-66
2022/08/25 02:53:28;;;;;;;5.50;3.53;;;19.40;99.90;;;;;;4898569;29;20491;-66
2022/08/25 02:55:54;;;;;;;4.15;3.55;;;19.40;99.90;;;;;;4898860;29;20127;-66
2022/08/25 02:58:21;;;;;;;5.38;3.42;;;19.40;99.90;;;;;;4880443;29;20098;-66
2022/08/25 03:00:49;;;;;;;4.13;3.30;;;19.40;99.90;;;;;;4899601;29;20561;-66
2022/08/25 03:03:15;;;;;;;4.10;3.70;;;19.40;99.90;;;;;;4897501;29;20049;-67
2022/08/25 03:05:41;;;;;;;4.10;3.63;;;19.30;99.90;;;;;;4898927;29;20056;-66
2022/08/25 03:08:07;;;;;;;4.53;3.30;;;19.30;99.90;;;;;;4896511;29;20091;-67
2022/08/25 03:10:33;;;;;;;4.97;3.67;;;19.30;99.90;;;;;;4896817;29;20052;-67
2022/08/25 03:12:59;;;;;;;3.97;3.30;;;19.30;99.90;;;;;;4898019;29;20059;-67
2022/08/25 03:15:26;;;;;;;5.00;3.38;;;19.20;99.90;;;;;;4898392;29;20501;-66
2022/08/25 03:17:53;;;;;;;5.15;3.42;;;19.20;99.90;;;;;;4897871;29;20529;-66
2022/08/25 03:20:20;;;;;;;4.75;3.20;;;19.20;99.90;;;;;;4899000;29;20493;-66
2022/08/25 03:22:46;;;;;;;6.03;3.58;;;19.20;99.90;;;;;;4895910;29;20459;-66
2022/08/25 03:27:56;;;;;;;5.68;3.50;;;19.20;99.90;;;;;;4898008;29;20421;-66
2022/08/25 03:30:22;;;;;;;3.50;3.20;;;19.20;99.90;;;;;;4881171;29;20049;-66
2022/08/25 03:32:47;;;;;;;4.32;3.53;;;19.10;99.90;;;;;;4880512;29;20101;-66
2022/08/25 03:35:13;;;;;;;4.43;3.30;;;19.10;99.90;;;;;;4898212;29;20521;-66
2022/08/25 03:37:39;;;;;;;6.28;3.55;;;19.10;99.90;;;;;;4897311;29;20084;-66
2022/08/25 03:40:13;;;;;;;4.88;3.25;;;19.10;99.90;;;;;;4897765;29;20060;-66
2022/08/25 03:42:55;;;;;;;5.75;3.45;;;19.10;99.90;;;;;;4897754;29;20128;-66
2022/08/25 03:45:21;;;;;;;;;;;19.10;99.90;;;;;;4898387;29;20085;-66
2022/08/25 03:47:52;;;;;;;8.50;3.55;;;19.10;99.90;;;;;;4880279;29;19979;-66
2022/08/25 03:50:20;;;;;;;7.28;3.50;;;19.10;99.90;;;;;;4898488;29;20506;-67
2022/08/25 03:52:55;;;;;;;4.97;3.45;;;19.10;99.90;;;;;;4896509;29;20422;-66
2022/08/25 03:55:23;;;;;;;6.40;3.50;;;18.90;99.90;;;;;;4898239;29;20057;-67
2022/08/25 03:57:54;;;;;;;6.13;3.40;;;19.00;99.90;;;;;;4880318;29;20120;-67
2022/08/25 04:00:21;;;;;;;4.28;3.55;;;19.00;99.90;;;;;;4897527;29;20037;-67
2022/08/25 04:03:12;;;;;;;4.80;3.33;;;18.90;99.90;;;;;;4897282;29;20057;-67
2022/08/25 04:05:38;;;;;;;4.32;3.53;;;18.90;99.90;;;;;;4895915;29;20504;-67
2022/08/25 04:08:05;;;;;;;6.70;3.78;;;18.80;99.90;;;;;;4897247;29;20048;-67
2022/08/25 04:10:31;;;;;;;4.07;3.25;;;18.90;99.90;;;;;;4880437;29;20053;-67
2022/08/25 04:12:57;;;;;;;4.30;3.38;;;18.80;99.90;;;;;;4897260;29;20083;-67
2022/08/25 04:15:24;;;;;;;5.72;3.65;;;18.80;99.90;;;;;;4897800;29;20132;-67
2022/08/25 04:17:49;;;;;;;4.93;3.45;;;18.70;99.90;;;;;;4897110;29;20450;-67
2022/08/25 04:20:15;;;;;;;3.80;3.50;;;18.70;99.90;;;;;;4897405;29;20056;-67
2022/08/25 04:22:40;;;;;;;4.82;3.60;;;18.70;99.90;;;;;;4879723;29;20075;-67
2022/08/25 04:25:07;;;;;;;3.75;3.42;;;18.60;99.90;;;;;;4879241;29;20405;-67
2022/08/25 04:27:32;;;;;;;4.72;4.00;;;18.60;99.90;;;;;;4897305;29;20060;-67
2022/08/25 04:29:58;;;;;;;4.20;3.75;;;18.60;99.90;;;;;;4897112;29;20056;-67
2022/08/25 04:32:24;;;;;;;3.72;3.17;;;18.60;99.90;;;;;;4897821;29;20064;-67
2022/08/25 04:34:49;;;;;;;6.70;3.60;;;18.50;99.90;;;;;;4895432;29;20095;-67
2022/08/25 04:37:15;;;;;;;5.97;3.28;;;18.50;99.90;;;;;;4880781;29;20183;-67
2022/08/25 04:39:41;;;;;;;5.30;3.47;;;18.50;99.90;;;;;;4880183;29;20048;-67
2022/08/25 04:42:06;;;;;;;4.38;3.65;;;18.50;99.90;;;;;;4897106;29;20060;-67
2022/08/25 04:44:32;;;;;;;4.85;3.65;;;18.50;99.90;;;;;;4895204;29;20052;-67
2022/08/25 04:46:59;;;;;;;6.40;4.00;;;18.50;99.90;;;;;;4896811;29;20139;-67
2022/08/25 04:49:25;;;;;;;5.03;3.30;;;18.50;99.90;;;;;;4880004;29;20061;-67
2022/08/25 04:51:50;;;;;;;4.75;3.47;;;18.30;99.90;;;;;;4878882;29;20505;-67
2022/08/25 04:54:20;;;;;;;6.05;3.50;;;18.50;99.90;;;;;;4895968;29;20058;-67
2022/08/25 04:56:46;;;;;;;4.38;3.50;;;18.50;99.90;;;;;;4894862;29;20426;-67
2022/08/25 04:59:14;;;;;;;6.50;3.67;;;18.50;99.90;;;;;;4879947;29;20056;-67
2022/08/25 05:01:42;;;;;;;6.55;3.90;;;18.50;99.90;;;;;;4895699;29;20056;-67
2022/08/25 05:04:09;;;;;;;4.22;3.55;;;18.50;99.90;;;;;;4898059;29;20103;-67
2022/08/25 05:06:35;;;;;;;7.55;4.15;;;18.50;99.90;;;;;;4895014;29;20498;-67
2022/08/25 05:09:02;;;;;;;6.05;3.97;;;18.50;99.90;;;;;;4879883;29;20084;-67
2022/08/25 05:11:28;;;;;;;6.18;4.25;;;18.50;99.90;;;;;;4896313;29;20096;-67
2022/08/25 05:13:55;;;;;;;5.97;3.78;;;18.50;99.90;;;;;;4879225;29;20450;-67
2022/08/25 05:16:23;;;;;;;5.45;3.65;;;18.50;99.90;;;;;;4896655;29;20060;-67
2022/08/25 05:18:49;;;;;;;5.82;3.47;;;18.60;99.90;;;;;;4880935;29;20068;-67
2022/08/25 05:21:26;;;;;;;7.53;3.83;;;18.60;99.90;;;;;;4895125;29;20059;-67
2022/08/25 05:23:59;;;;;;;5.30;4.15;;;18.60;99.90;;;;;;4890429;29;20067;-67
2022/08/25 05:26:26;;;;;;;6.95;4.30;;;18.70;99.90;;;;;;4884618;29;20097;-67
2022/08/25 05:28:53;;;;;;;8.82;4.00;;;18.70;99.90;;;;;;4897463;29;20132;-67
2022/08/25 05:31:20;;;;;;;9.02;3.90;;;18.80;99.90;;;;;;4877720;29;20060;-67
2022/08/25 05:33:46;;;;;;;8.20;4.45;;;18.80;99.90;;;;;;4895138;29;20459;-67
2022/08/25 05:36:14;;;;;;;9.13;4.28;;;18.80;99.90;;;;;;4890854;29;20084;-67
2022/08/25 05:38:40;;;;;;;5.43;3.80;;;19.00;99.90;;;;;;4878786;29;20056;-67
2022/08/25 05:41:12;;;;;;;8.00;4.25;;;19.00;99.90;;;;;;4882445;29;20148;-67
2022/08/25 05:43:40;;;;;;;4.68;3.97;;;19.00;99.90;;;;;;4892107;29;20064;-67
2022/08/25 05:46:06;;;;;;;5.13;3.75;;;19.00;99.90;;;;;;4880617;29;20064;-67
2022/08/25 05:48:32;;;;;;;8.52;4.53;;;19.10;99.90;;;;;;4898411;29;20060;-67
2022/08/25 05:51:01;;;;;;;7.72;3.88;;;19.20;99.90;;;;;;4880733;29;20778;-67
2022/08/25 05:53:28;;;;;;;8.57;3.65;;;19.30;99.90;;;;;;4899193;29;20048;-67
2022/08/25 05:55:55;;;;;;;5.97;4.35;;;20.00;99.90;;;;;;4899770;29;20115;-67
2022/08/25 05:58:22;;;;;;;9.18;4.07;;;20.80;99.90;;;;;;4880292;29;20088;-67
2022/08/25 06:00:49;;;;;;;7.60;4.28;;;21.50;99.90;;;;;;4882419;29;20056;-67
2022/08/25 06:03:15;;;;;;;3.67;3.38;;;21.80;99.90;;;;;;4898507;29;20052;-67
2022/08/25 06:05:40;;;;;;;7.80;4.25;;;21.60;99.90;;;;;;4898741;29;20057;-67
2022/08/25 06:08:06;;;;;;;6.70;3.75;;;21.20;99.90;;;;;;4899033;29;20053;-67
2022/08/25 06:10:32;;;;;;;6.53;3.97;;;21.00;99.90;;;;;;4881043;29;20057;-67
2022/08/25 06:12:58;;;;;;;7.35;4.00;;;20.80;99.90;;;;;;4892653;29;20086;-67
2022/08/25 06:15:25;;;;;;;4.53;3.55;;;20.70;99.90;;;;;;4895068;29;20096;-67
2022/08/25 06:17:52;;;;;;;7.53;4.20;;;20.60;99.90;;;;;;4891373;29;20044;-66
2022/08/25 06:20:20;;;;;;;5.13;4.18;;;20.60;99.90;;;;;;4894571;29;20095;-68
2022/08/25 06:22:49;;;;;;;5.10;3.90;;;20.60;99.90;;;;;;4899289;29;20052;-67
2022/08/25 06:25:18;;;;;;;5.10;3.83;;;20.70;99.90;;;;;;4888882;29;20055;-68
2022/08/25 06:27:44;;;;;;;5.38;3.92;;;20.70;99.90;;;;;;4894344;29;20056;-68
2022/08/25 06:30:16;;;;;;;7.30;3.88;;;20.80;99.90;;;;;;4876499;29;20350;-67
2022/08/25 06:32:43;;;;;;;;;;;20.80;99.90;;;;;;4887717;29;20060;-67
2022/08/25 06:35:13;;;;;;;12.98;4.40;;;20.80;99.90;;;;;;4881186;29;20014;-67
2022/08/25 06:37:50;;;;;;;7.55;4.70;;;20.90;99.90;;;;;;4893158;29;20052;-67
2022/08/25 06:40:16;;;;;;;10.93;4.60;;;21.00;99.90;;;;;;4893591;29;20053;-69
2022/08/25 06:42:42;;;;;;;10.13;4.60;;;21.10;99.90;;;;;;4898141;29;20543;-68
2022/08/25 06:45:08;;;;;;;6.13;3.75;;;21.20;99.90;;;;;;4887171;29;20059;-68
2022/08/25 06:47:33;;;;;;;6.43;4.05;;;21.20;99.90;;;;;;4895620;29;20045;-67
2022/08/25 06:49:59;;;;;;;5.68;3.70;;;21.30;99.90;;;;;;4893254;29;20084;-68
2022/08/25 06:52:25;;;;;;;5.72;3.95;;;21.40;99.90;;;;;;4898864;29;20375;-68
2022/08/25 06:54:51;;;;;;;5.47;3.70;;;21.50;99.90;;;;;;4899026;29;20056;-67
2022/08/25 06:57:17;;;;;;;8.45;4.32;;;21.60;99.90;;;;;;4899343;29;20056;-67
2022/08/25 06:59:43;;;;;;;10.52;4.38;;;21.70;99.90;;;;;;4882798;29;20044;-67
2022/08/25 07:02:08;;;;;;;7.80;4.40;;;21.90;99.90;;;;;;4899659;29;20516;-67
2022/08/25 07:04:35;;;;;;;7.45;4.20;;;22.00;99.90;;;;;;4898828;29;20417;-67
2022/08/25 07:07:01;;;;;;;8.27;4.57;;;22.10;99.90;;;;;;4894942;29;20124;-68
2022/08/25 07:09:27;;;;;;;6.78;4.20;;;22.20;99.90;;;;;;4872236;29;20114;-68
2022/08/25 07:11:54;;;;;;;6.97;4.10;;;22.30;99.90;;;;;;4892418;29;20061;-68
2022/08/25 07:14:21;;;;;;;10.40;4.55;;;22.40;99.90;;;;;;4892769;29;20557;-67
2022/08/25 07:16:46;;;;;;;5.70;4.05;;;22.50;99.90;;;;;;4876671;29;20063;-68
2022/08/25 07:19:13;;;;;;;6.10;3.95;;;22.60;99.90;;;;;;4893449;29;20041;-68
2022/08/25 07:21:41;;;;;;;5.80;3.80;;;22.80;99.90;;;;;;4876212;29;20041;-68
2022/08/25 07:24:10;;;;;;;9.85;5.10;;;22.90;99.90;;;;;;4880789;29;20135;-67
2022/08/25 07:26:38;;;;;;;7.93;3.85;;;23.00;99.90;;;;;;4880749;29;20057;-68
2022/08/25 07:29:27;;;;;;;7.65;3.72;;;23.10;99.90;;;;;;4882373;29;20072;-68
2022/08/25 07:31:53;;;;;;;11.00;4.20;;;23.20;99.90;;;;;;4880678;29;20053;-67
2022/08/25 07:37:06;;;;;;;5.53;4.18;;;23.50;99.90;;;;;;4898464;29;20052;-68
2022/08/25 07:39:32;;;;;;;7.85;3.80;;;23.50;99.90;;;;;;4898763;29;20465;-68
2022/08/25 07:41:59;;;;;;;6.45;3.85;;;23.70;99.90;;;;;;4897193;29;20060;-68
2022/08/25 07:44:25;;;;;;;6.63;3.42;;;23.80;99.90;;;;;;4880834;29;20132;-67
2022/08/25 07:46:51;;;;;;;7.50;4.45;;;23.90;99.90;;;;;;4880400;29;20048;-69
2022/08/25 07:49:18;;;;;;;7.25;4.32;;;24.00;99.90;;;;;;4898797;29;20063;-68
2022/08/25 07:51:45;;;;;;;7.10;4.43;;;24.10;99.90;;;;;;4880933;29;20523;-67
2022/08/25 07:54:10;;;;;;;6.35;3.88;;;24.20;99.90;;;;;;4894185;29;20075;-68
2022/08/25 07:56:42;;;;;;;6.47;4.45;;;24.30;99.90;;;;;;4881202;29;20053;-66
2022/08/25 07:59:09;;;;;;;6.35;4.00;;;24.40;99.90;;;;;;4882135;29;20434;-66
2022/08/25 08:09:11;;;;;;;6.57;4.07;;;24.80;99.90;;;;;;4885909;29;20061;-68
2022/08/25 08:11:39;;;;;;;5.40;4.10;;;25.00;99.90;;;;;;4883692;29;20532;-67
2022/08/25 08:14:06;;;;;;;4.93;4.45;;;25.10;99.90;;;;;;4878421;29;20441;-68
2022/08/25 08:16:32;;;;;;;5.32;4.10;;;25.20;99.90;;;;;;4896787;29;20052;-66
2022/08/25 08:18:59;;;;;;;7.13;5.00;;;25.30;99.90;;;;;;4880970;29;20136;-67
2022/08/25 08:21:28;;;;;;;5.75;4.80;;;25.40;99.90;;;;;;4880571;29;20067;-66
2022/08/25 08:32:33;;;;;;;6.60;3.83;;;25.80;99.90;;;;;;4896966;29;20051;-68
2022/08/25 08:35:24;;;;;;;6.20;5.60;;;26.00;99.90;;;;;;4877354;29;20064;-67
2022/08/25 08:37:50;;;;;;;7.57;5.32;;;26.10;99.90;;;;;;4877014;29;20131;-68
2022/08/25 08:40:17;;;;;;;6.13;4.90;;;26.20;99.90;;;;;;4881041;29;20091;-68
2022/08/25 08:43:07;;;;;;;4.25;3.85;;;26.30;98.60;;;;;;4897285;29;20152;-68
2022/08/25 08:45:36;;;;;;;7.53;4.10;;;26.50;96.20;;;;;;4890298;29;20048;-69
2022/08/25 08:48:22;;;;;;;5.65;3.63;;;26.50;96.80;;;;;;4897205;29;20049;-68
2022/08/25 08:50:51;;;;;;;6.40;3.53;;;26.70;97.80;;;;;;4894933;29;20056;-68
2022/08/25 08:53:33;;;;;;;6.32;4.00;;;26.80;96.80;;;;;;4880587;29;20403;-68
2022/08/25 08:56:11;;;;;;;4.40;3.92;;;26.90;94.60;;;;;;4898293;29;20079;-68
2022/08/25 08:58:51;;;;;;;5.72;3.38;;;27.00;95.50;;;;;;4897947;29;20075;-68
2022/08/25 09:01:38;;;;;;;5.35;3.55;;;27.20;94.10;;;;;;4897787;29;20063;-69
2022/08/25 09:04:31;;;;;;;4.97;3.35;;;27.30;92.60;;;;;;4897573;29;20053;-68
2022/08/25 09:06:58;;;;;;;4.07;3.67;;;27.40;90.00;;;;;;4879886;29;20052;-69
2022/08/25 09:09:27;;;;;;;4.50;3.25;;;27.60;90.80;;;;;;4896449;29;20052;-68
2022/08/25 09:12:01;;;;;;;6.20;3.20;;;27.60;87.40;;;;;;4893103;29;20048;-68
2022/08/25 09:14:38;;;;;;;5.75;3.25;;;27.70;84.00;;;;;;4898422;29;20056;-69
2022/08/25 09:17:26;;;;;;;5.38;3.25;;;27.80;82.90;;;;;;4883825;29;20052;-68
2022/08/25 09:20:26;;;;;;;5.28;3.00;;;27.90;82.30;;;;;;4901149;29;20056;-69
2022/08/25 09:23:07;;;;;;;3.63;2.75;;;28.00;72.50;;;;;;4876067;29;20053;-69
2022/08/25 09:25:58;;;;;;;4.45;2.88;;;28.10;76.20;;;;;;4898489;29;20425;-68
2022/08/25 09:28:52;;;;;;;4.32;3.53;;;28.00;71.10;;;;;;4900279;29;20158;-69
2022/08/25 09:31:25;;;;;;;4.85;2.97;;;28.10;73.00;;;;;;4883583;29;20063;-68
2022/08/25 09:33:56;;;;;;;4.28;2.50;;;28.20;72.40;;;;;;4900665;29;20464;-69
2022/08/25 09:36:23;;;;;;;3.40;2.50;;;28.30;71.30;;;;;;4899138;29;20056;-68
2022/08/25 09:38:49;;;;;;;3.55;2.47;;;28.40;70.00;;;;;;4883301;29;20049;-69
2022/08/25 09:41:33;;;;;;;5.20;2.40;;;28.40;68.50;;;;;;4900626;29;20124;-69
2022/08/25 09:43:58;;;;;;;3.90;2.10;;;28.40;67.30;;;;;;4884123;29;20096;-68
2022/08/25 09:46:27;;;;;;;3.38;2.40;;;28.40;66.20;;;;;;4897975;29;20076;-67
2022/08/25 09:48:58;;;;;;;5.40;2.60;;;28.50;65.30;;;;;;4900686;29;20099;-68
2022/08/25 09:51:27;;;;;;;4.97;2.70;;;28.50;64.80;;;;;;4899743;29;20086;-68
2022/08/25 09:54:18;;;;;;;6.05;2.60;;;28.70;64.30;;;;;;4900269;29;20076;-67
2022/08/25 09:56:56;;;;;;;5.55;2.55;;;28.70;62.00;;;;;;4897813;29;20398;-68
2022/08/25 09:59:26;;;;;;;3.92;2.30;;;28.80;63.30;;;;;;4900149;29;20192;-66
2022/08/25 10:01:58;;;;;;;4.65;2.40;;;28.80;61.30;;;;;;4899824;29;20549;-68
2022/08/25 10:04:42;;;;;;;4.32;2.80;;;28.90;61.90;;;;;;4896780;29;20095;-68
2022/08/25 10:07:24;;;;;;;5.18;2.80;;;28.90;61.20;;;;;;4897087;29;20068;-68
2022/08/25 10:09:57;;;;;;;4.07;2.67;;;29.00;63.30;;;;;;4897168;29;20052;-67
2022/08/25 10:12:39;;;;;;;4.90;3.00;;;29.00;61.80;;;;;;4896337;29;20058;-68
2022/08/25 10:15:30;;;;;;;3.80;2.88;;;29.10;61.40;;;;;;4889524;29;20565;-68
2022/08/25 10:18:17;;;;;;;5.73;2.70;;;29.10;58.90;;;;;;4899330;29;20068;-67
2022/08/25 10:20:43;;;;;;;3.38;3.03;;;29.10;59.30;;;;;;4899312;29;20048;-67
2022/08/25 10:23:11;;;;;;;5.35;2.70;;;29.00;59.70;;;;;;4864370;29;20055;-68
2022/08/25 10:28:45;;;;;;;3.95;2.65;;;29.10;59.80;;;;;;4882842;29;20155;-67
2022/08/25 10:31:24;;;;;;;4.50;2.63;;;29.20;57.80;;;;;;4900021;29;20063;-67
2022/08/25 10:34:04;;;;;;;5.10;2.67;;;29.20;57.60;;;;;;4899821;29;20464;-67
2022/08/25 10:37:11;;;;;;;2.90;2.60;;;29.30;58.60;;;;;;4873308;29;20052;-68
2022/08/25 10:39:56;;;;;;;3.88;2.47;;;29.20;56.10;;;;;;4899416;29;20100;-66
2022/08/25 10:42:33;;;;;;;4.50;2.70;;;29.30;57.30;;;;;;4899979;29;20061;-67
2022/08/25 10:48:14;;;;;;;3.70;2.85;;;29.40;57.10;;;;;;4899635;29;20052;-67
2022/08/25 10:50:44;;;;;;;4.43;2.70;;;29.40;56.70;;;;;;4898228;29;20053;-67
2022/08/25 10:53:25;;;;;;;5.22;2.95;;;29.50;57.40;;;;;;4894519;29;20063;-67
2022/08/25 10:55:54;;;;;;;3.25;2.67;;;29.50;57.70;;;;;;4898942;29;20155;-67
2022/08/25 10:58:49;;;;;;;6.25;2.75;;;29.60;56.70;;;;;;4881003;29;20072;-68
2022/08/25 11:01:52;;;;;;;3.47;2.55;;;29.60;56.00;;;;;;4880302;29;20104;-67
2022/08/25 11:04:30;;;;;;;5.18;2.65;;;29.60;55.30;;;;;;4899902;29;20049;-68
2022/08/25 11:07:19;;;;;;;8.98;2.97;;;29.70;55.80;;;;;;4899198;29;20227;-67
2022/08/25 11:09:49;;;;;;;4.85;2.80;;;29.80;55.90;;;;;;4900332;29;20053;-66
2022/08/25 11:12:31;;;;;;;3.37;2.40;;;29.80;55.60;;;;;;4898326;29;20048;-68
2022/08/25 11:15:02;;;;;;;4.68;2.60;;;29.80;54.50;;;;;;4895266;29;20053;-66
2022/08/25 11:17:40;;;;;;;2.90;2.20;;;29.80;55.00;;;;;;4898693;29;20064;-67
2022/08/25 11:20:16;;;;;;;3.85;2.45;;;29.80;53.60;;;;;;4879585;29;20067;-66
2022/08/25 11:22:45;;;;;;;3.60;2.58;;;29.80;54.70;;;;;;4882069;29;20052;-67
2022/08/25 11:25:19;;;;;;;3.13;2.63;;;29.90;54.80;;;;;;4899160;29;20120;-67
2022/08/25 11:27:49;;;;;;;3.78;2.80;;;29.90;55.00;;;;;;4896113;29;20064;-67
2022/08/25 11:30:16;;;;;;;4.25;2.80;;;29.90;55.00;;;;;;4882017;29;20057;-67
2022/08/25 11:32:50;;;;;;;9.23;2.83;;;30.00;54.70;;;;;;4899079;29;20052;-67
2022/08/25 11:35:46;;;;;;;4.55;2.92;;;30.10;54.70;;;;;;4897369;29;20390;-67
2022/08/25 11:38:26;;;;;;;4.55;3.00;;;30.10;55.40;;;;;;4897648;29;20041;-67
2022/08/25 11:40:58;;;;;;;3.83;3.22;;;30.10;55.30;;;;;;4896554;29;20048;-67
2022/08/25 11:43:41;;;;;;;3.67;2.83;;;30.10;55.40;;;;;;4881470;29;20055;-67
2022/08/25 11:46:14;;;;;;;6.10;2.88;;;30.20;55.10;;;;;;4880820;29;20104;-68
2022/08/25 11:49:20;;;;;;;4.13;2.75;;;30.10;55.20;;;;;;4898658;29;20048;-66
2022/08/25 11:51:47;;;;;;;3.72;2.88;;;30.10;56.70;;;;;;4898126;29;20098;-68
2022/08/25 11:54:33;;;;;;;7.00;2.80;;;30.20;56.80;;;;;;4878933;29;20112;-67
2022/08/25 11:57:07;;;;;;;3.88;2.42;;;30.30;55.40;;;;;;4879365;29;20057;-68
2022/08/25 12:00:09;;;;;;;5.20;2.78;;;30.40;55.00;;;;;;4896452;29;20067;-68
2022/08/25 12:02:41;;;;;;;2.03;1.92;;;30.40;50.90;;;;;;4898025;29;20052;-66
2022/08/25 12:05:16;;;;;;;2.30;1.90;;;30.40;50.50;;;;;;4881491;29;20099;-67
2022/08/25 12:10:55;;;;;;;4.65;2.15;;;30.40;50.20;;;;;;4898548;29;20181;-67
2022/08/25 12:13:41;;;;;;;4.38;2.10;;;30.40;50.40;;;;;;4898292;29;20163;-68
2022/08/25 12:16:31;;;;;;;3.03;2.13;;;30.50;49.70;;;;;;4881801;29;20402;-68
2022/08/25 12:19:29;;;;;;;3.97;2.10;;;30.50;49.40;;;;;;4881284;29;20092;-67
2022/08/25 12:22:25;;;;;;;3.05;2.10;;;30.60;50.40;;;;;;4896091;29;20152;-68
2022/08/25 12:24:57;;;;;;;2.70;1.80;;;30.60;47.60;;;;;;4872996;29;20048;-68
2022/08/25 12:27:25;;;;;;;;;;;30.70;48.90;;;;;;4881309;29;20052;-67
2022/08/25 12:30:00;;;;;;;3.50;2.08;;;30.60;47.60;;;;;;4899666;29;20288;-67
2022/08/25 12:32:44;;;;;;;4.38;1.95;;;30.60;48.20;;;;;;4880186;29;20040;-67
2022/08/25 12:35:36;;;;;;;2.65;2.22;;;30.60;48.30;;;;;;4880173;29;20060;-68
2022/08/25 12:38:01;;;;;;;2.40;2.20;;;30.60;48.20;;;;;;4896312;29;20532;-67
2022/08/25 12:40:38;;;;;;;3.15;1.92;;;30.60;48.60;;;;;;4880248;29;20080;-66
2022/08/25 12:43:28;;;;;;;4.30;2.40;;;30.60;48.50;;;;;;4880247;29;20048;-66
2022/08/25 12:46:17;;;;;;;3.17;2.10;;;30.60;47.90;;;;;;4896069;29;20048;-65
2022/08/25 12:49:11;;;;;;;8.40;2.40;;;30.60;49.50;;;;;;4895511;29;20063;-67
2022/08/25 12:51:57;;;;;;;2.65;2.10;;;30.60;47.80;;;;;;4895123;29;20056;-68
2022/08/25 12:54:28;;;;;;;3.33;2.22;;;30.70;49.10;;;;;;4864163;29;20052;-66
2022/08/25 12:57:01;;;;;;;3.00;2.10;;;30.60;49.30;;;;;;4904425;29;20056;-66
2022/08/25 12:59:30;;;;;;;3.55;2.20;;;30.70;48.40;;;;;;4901355;29;20052;-67
2022/08/25 13:01:55;;;;;;;2.65;2.45;;;30.70;48.40;;;;;;4901348;29;20729;-66
2022/08/25 13:04:42;;;;;;;2.63;2.30;;;30.60;48.30;;;;;;4902777;29;20076;-67
2022/08/25 13:07:23;;;;;;;2.92;2.45;;;30.70;48.80;;;;;;4903162;29;20058;-66
2022/08/25 13:10:10;;;;;;;4.78;2.13;;;30.80;48.90;;;;;;4906372;29;20055;-66
2022/08/25 13:13:01;;;;;;;2.50;2.25;;;30.90;48.90;;;;;;4902470;29;20159;-67
2022/08/25 13:15:37;;;;;;;3.28;2.40;;;30.90;49.40;;;;;;4889630;29;20405;-68
2022/08/25 13:18:25;;;;;;;4.85;2.40;;;30.90;49.60;;;;;;4896861;29;20053;-67
2022/08/25 13:24:57;;;;;;;3.38;2.60;;;31.00;48.80;;;;;;4906317;29;20108;-67
2022/08/25 13:31:29;;;;;;;4.32;2.25;;;31.00;48.00;;;;;;4902507;29;20124;-68
2022/08/25 13:34:21;;;;;;;3.67;2.72;;;30.90;48.40;;;;;;4885050;29;20508;-69
2022/08/25 13:39:34;;;;;;;3.83;2.85;;;30.90;48.70;;;;;;4905525;29;20441;-67
2022/08/25 13:42:02;;;;;;;3.80;2.75;;;30.90;48.70;;;;;;4888497;29;20055;-67
2022/08/25 13:44:31;;;;;;;3.03;2.47;;;30.90;48.30;;;;;;4904091;29;20400;-70
2022/08/25 13:47:31;;;;;;;4.47;2.67;;;30.90;47.80;;;;;;4904132;29;20040;-67
2022/08/25 13:50:20;;;;;;;7.55;3.20;;;30.90;48.30;;;;;;4883520;29;20057;-69
2022/08/25 13:53:10;;;;;;;6.10;3.13;;;30.90;50.40;;;;;;4880585;29;20060;-67